sensor_id;sensor_type;location;lat;lon;timestamp;P1;durP1;ratioP1;P2;durP2;ratioP2
19891;SDS011;10108;50.142;8.724;2022-11-22T00:01:29;19.75;;;17.63;;
19891;SDS011;10108;50.142;8.724;2022-11-22T00:03:55;19.67;;;17.58;;
19891;SDS011;10108;50.142;8.724;2022-11-22T00:06:21;20.05;;;18.15;;
19891;SDS011;10108;50.142;8.724;2022-11-22T00:08:47;19.40;;;17.45;;
19891;SDS011;10108;50.142;8.724;2022-11-22T00:11:13;20.05;;;17.88;;
19891;SDS011;10108;50.142;8.724;2022-11-22T00:13:39;22.13;;;17.33;;
19891;SDS011;10108;50.142;8.724;2022-11-22T00:16:05;19.15;;;17.25;;
19891;SDS011;10108;50.142;8.724;2022-11-22T00:18:31;18.92;;;17.23;;
19891;SDS011;10108;50.142;8.724;2022-11-22T00:21:02;20.13;;;18.02;;
19891;SDS011;10108;50.142;8.724;2022-11-22T00:23:30;19.42;;;17.40;;
19891;SDS011;10108;50.142;8.724;2022-11-22T00:25:56;18.67;;;16.80;;
19891;SDS011;10108;50.142;8.724;2022-11-22T00:28:22;18.05;;;16.25;;
19891;SDS011;10108;50.142;8.724;2022-11-22T00:30:48;21.05;;;16.75;;
19891;SDS011;10108;50.142;8.724;2022-11-22T00:33:14;17.15;;;15.45;;
19891;SDS011;10108;50.142;8.724;2022-11-22T00:35:41;16.90;;;15.20;;
19891;SDS011;10108;50.142;8.724;2022-11-22T00:38:07;19.52;;;15.73;;
19891;SDS011;10108;50.142;8.724;2022-11-22T00:40:33;20.88;;;15.50;;
19891;SDS011;10108;50.142;8.724;2022-11-22T00:42:59;17.42;;;15.60;;
19891;SDS011;10108;50.142;8.724;2022-11-22T00:45:25;18.75;;;15.70;;
19891;SDS011;10108;50.142;8.724;2022-11-22T00:47:51;16.98;;;15.27;;
19891;SDS011;10108;50.142;8.724;2022-11-22T00:50:17;16.98;;;15.27;;
19891;SDS011;10108;50.142;8.724;2022-11-22T00:52:43;16.90;;;14.82;;
19891;SDS011;10108;50.142;8.724;2022-11-22T00:55:09;16.27;;;14.68;;
19891;SDS011;10108;50.142;8.724;2022-11-22T00:57:35;19.70;;;14.85;;
19891;SDS011;10108;50.142;8.724;2022-11-22T01:00:02;18.98;;;15.05;;
19891;SDS011;10108;50.142;8.724;2022-11-22T01:02:29;21.23;;;15.27;;
19891;SDS011;10108;50.142;8.724;2022-11-22T01:04:55;20.83;;;14.68;;
19891;SDS011;10108;50.142;8.724;2022-11-22T01:07:21;16.00;;;14.35;;
19891;SDS011;10108;50.142;8.724;2022-11-22T01:09:48;16.02;;;14.32;;
19891;SDS011;10108;50.142;8.724;2022-11-22T01:12:14;15.95;;;14.25;;
19891;SDS011;10108;50.142;8.724;2022-11-22T01:14:40;15.70;;;13.95;;
19891;SDS011;10108;50.142;8.724;2022-11-22T01:17:06;19.00;;;14.48;;
19891;SDS011;10108;50.142;8.724;2022-11-22T01:19:32;17.48;;;14.05;;
19891;SDS011;10108;50.142;8.724;2022-11-22T01:21:58;17.10;;;13.63;;
19891;SDS011;10108;50.142;8.724;2022-11-22T01:24:24;15.35;;;13.20;;
19891;SDS011;10108;50.142;8.724;2022-11-22T01:26:50;14.70;;;13.20;;
19891;SDS011;10108;50.142;8.724;2022-11-22T01:29:16;14.07;;;12.55;;
19891;SDS011;10108;50.142;8.724;2022-11-22T01:31:42;17.67;;;12.82;;
19891;SDS011;10108;50.142;8.724;2022-11-22T01:34:09;17.65;;;12.75;;
19891;SDS011;10108;50.142;8.724;2022-11-22T01:36:35;16.33;;;12.75;;
19891;SDS011;10108;50.142;8.724;2022-11-22T01:39:01;15.52;;;12.77;;
19891;SDS011;10108;50.142;8.724;2022-11-22T01:41:28;13.40;;;11.85;;
19891;SDS011;10108;50.142;8.724;2022-11-22T01:43:54;14.95;;;12.35;;
19891;SDS011;10108;50.142;8.724;2022-11-22T01:46:24;14.77;;;11.85;;
19891;SDS011;10108;50.142;8.724;2022-11-22T01:51:34;16.58;;;12.25;;
19891;SDS011;10108;50.142;8.724;2022-11-22T01:54:10;15.10;;;12.20;;
19891;SDS011;10108;50.142;8.724;2022-11-22T01:56:40;13.90;;;12.15;;
19891;SDS011;10108;50.142;8.724;2022-11-22T01:59:11;14.15;;;12.32;;
19891;SDS011;10108;50.142;8.724;2022-11-22T02:01:41;16.13;;;12.77;;
19891;SDS011;10108;50.142;8.724;2022-11-22T02:04:08;16.02;;;12.65;;
19891;SDS011;10108;50.142;8.724;2022-11-22T02:06:38;16.90;;;12.70;;
19891;SDS011;10108;50.142;8.724;2022-11-22T02:09:13;17.30;;;14.00;;
19891;SDS011;10108;50.142;8.724;2022-11-22T02:11:48;16.42;;;13.98;;
19891;SDS011;10108;50.142;8.724;2022-11-22T02:14:17;17.42;;;14.38;;
19891;SDS011;10108;50.142;8.724;2022-11-22T02:16:46;17.90;;;13.52;;
19891;SDS011;10108;50.142;8.724;2022-11-22T02:19:58;15.38;;;13.73;;
19891;SDS011;10108;50.142;8.724;2022-11-22T02:22:05;18.88;;;13.77;;
19891;SDS011;10108;50.142;8.724;2022-11-22T02:24:45;16.00;;;14.07;;
19891;SDS011;10108;50.142;8.724;2022-11-22T02:27:26;20.27;;;13.63;;
19891;SDS011;10108;50.142;8.724;2022-11-22T02:29:52;21.52;;;14.00;;
19891;SDS011;10108;50.142;8.724;2022-11-22T02:32:18;17.23;;;13.88;;
19891;SDS011;10108;50.142;8.724;2022-11-22T02:34:48;17.20;;;14.02;;
19891;SDS011;10108;50.142;8.724;2022-11-22T02:37:21;15.52;;;13.88;;
19891;SDS011;10108;50.142;8.724;2022-11-22T02:39:57;16.58;;;13.88;;
19891;SDS011;10108;50.142;8.724;2022-11-22T02:42:27;17.95;;;14.25;;
19891;SDS011;10108;50.142;8.724;2022-11-22T02:44:55;16.73;;;14.20;;
19891;SDS011;10108;50.142;8.724;2022-11-22T02:47:21;15.20;;;13.75;;
19891;SDS011;10108;50.142;8.724;2022-11-22T02:49:47;16.92;;;13.63;;
19891;SDS011;10108;50.142;8.724;2022-11-22T02:52:17;15.80;;;13.82;;
19891;SDS011;10108;50.142;8.724;2022-11-22T02:54:43;19.10;;;13.70;;
19891;SDS011;10108;50.142;8.724;2022-11-22T02:57:10;18.73;;;13.90;;
19891;SDS011;10108;50.142;8.724;2022-11-22T02:59:36;17.58;;;13.65;;
19891;SDS011;10108;50.142;8.724;2022-11-22T03:02:02;18.35;;;14.27;;
19891;SDS011;10108;50.142;8.724;2022-11-22T03:04:29;16.02;;;14.20;;
19891;SDS011;10108;50.142;8.724;2022-11-22T03:06:56;17.17;;;14.43;;
19891;SDS011;10108;50.142;8.724;2022-11-22T03:09:24;19.13;;;13.77;;
19891;SDS011;10108;50.142;8.724;2022-11-22T03:11:51;15.38;;;13.93;;
19891;SDS011;10108;50.142;8.724;2022-11-22T03:14:17;15.88;;;14.10;;
19891;SDS011;10108;50.142;8.724;2022-11-22T03:16:44;20.13;;;14.57;;
19891;SDS011;10108;50.142;8.724;2022-11-22T03:19:11;16.30;;;14.70;;
19891;SDS011;10108;50.142;8.724;2022-11-22T03:21:38;17.35;;;14.48;;
19891;SDS011;10108;50.142;8.724;2022-11-22T03:24:06;19.63;;;15.25;;
19891;SDS011;10108;50.142;8.724;2022-11-22T03:26:33;16.73;;;14.93;;
19891;SDS011;10108;50.142;8.724;2022-11-22T03:28:59;17.73;;;15.15;;
19891;SDS011;10108;50.142;8.724;2022-11-22T03:31:25;19.75;;;14.98;;
19891;SDS011;10108;50.142;8.724;2022-11-22T03:33:52;17.10;;;15.23;;
19891;SDS011;10108;50.142;8.724;2022-11-22T03:36:18;16.80;;;15.10;;
19891;SDS011;10108;50.142;8.724;2022-11-22T03:38:44;23.60;;;16.40;;
19891;SDS011;10108;50.142;8.724;2022-11-22T03:41:10;23.15;;;15.88;;
19891;SDS011;10108;50.142;8.724;2022-11-22T03:43:37;18.38;;;15.65;;
19891;SDS011;10108;50.142;8.724;2022-11-22T03:46:03;23.70;;;16.73;;
19891;SDS011;10108;50.142;8.724;2022-11-22T03:48:29;19.65;;;16.33;;
19891;SDS011;10108;50.142;8.724;2022-11-22T03:51:02;23.75;;;16.52;;
19891;SDS011;10108;50.142;8.724;2022-11-22T03:53:29;20.40;;;16.25;;
19891;SDS011;10108;50.142;8.724;2022-11-22T03:55:56;22.42;;;15.93;;
19891;SDS011;10108;50.142;8.724;2022-11-22T03:58:22;20.83;;;16.05;;
19891;SDS011;10108;50.142;8.724;2022-11-22T04:00:48;21.67;;;16.55;;
19891;SDS011;10108;50.142;8.724;2022-11-22T04:03:14;21.95;;;16.67;;
19891;SDS011;10108;50.142;8.724;2022-11-22T04:05:40;18.58;;;16.15;;
19891;SDS011;10108;50.142;8.724;2022-11-22T04:08:07;19.95;;;16.90;;
19891;SDS011;10108;50.142;8.724;2022-11-22T04:10:33;21.73;;;16.98;;
19891;SDS011;10108;50.142;8.724;2022-11-22T04:12:59;18.98;;;16.67;;
19891;SDS011;10108;50.142;8.724;2022-11-22T04:15:25;18.80;;;16.90;;
19891;SDS011;10108;50.142;8.724;2022-11-22T04:17:51;19.13;;;17.13;;
19891;SDS011;10108;50.142;8.724;2022-11-22T04:20:19;20.10;;;16.48;;
19891;SDS011;10108;50.142;8.724;2022-11-22T04:23:06;18.75;;;16.05;;
19891;SDS011;10108;50.142;8.724;2022-11-22T04:25:35;24.42;;;16.85;;
19891;SDS011;10108;50.142;8.724;2022-11-22T04:28:03;18.77;;;16.40;;
19891;SDS011;10108;50.142;8.724;2022-11-22T04:30:30;21.30;;;16.35;;
19891;SDS011;10108;50.142;8.724;2022-11-22T04:33:15;21.63;;;16.60;;
19891;SDS011;10108;50.142;8.724;2022-11-22T04:35:42;21.73;;;16.58;;
19891;SDS011;10108;50.142;8.724;2022-11-22T04:38:10;22.30;;;16.50;;
19891;SDS011;10108;50.142;8.724;2022-11-22T04:40:37;22.02;;;17.10;;
19891;SDS011;10108;50.142;8.724;2022-11-22T04:43:04;18.95;;;16.42;;
19891;SDS011;10108;50.142;8.724;2022-11-22T04:45:49;20.35;;;16.25;;
19891;SDS011;10108;50.142;8.724;2022-11-22T04:48:16;24.52;;;16.42;;
19891;SDS011;10108;50.142;8.724;2022-11-22T04:50:42;27.20;;;17.40;;
19891;SDS011;10108;50.142;8.724;2022-11-22T04:53:27;22.85;;;16.75;;
19891;SDS011;10108;50.142;8.724;2022-11-22T04:55:54;18.60;;;15.93;;
19891;SDS011;10108;50.142;8.724;2022-11-22T04:58:20;20.70;;;16.17;;
19891;SDS011;10108;50.142;8.724;2022-11-22T05:00:47;20.20;;;16.38;;
19891;SDS011;10108;50.142;8.724;2022-11-22T05:03:14;23.30;;;16.67;;
19891;SDS011;10108;50.142;8.724;2022-11-22T05:05:41;21.25;;;16.08;;
19891;SDS011;10108;50.142;8.724;2022-11-22T05:08:09;21.63;;;16.10;;
19891;SDS011;10108;50.142;8.724;2022-11-22T05:10:36;18.83;;;16.02;;
19891;SDS011;10108;50.142;8.724;2022-11-22T05:13:23;20.83;;;15.60;;
19891;SDS011;10108;50.142;8.724;2022-11-22T05:15:57;19.98;;;15.35;;
19891;SDS011;10108;50.142;8.724;2022-11-22T05:18:24;23.75;;;16.05;;
19891;SDS011;10108;50.142;8.724;2022-11-22T05:20:51;18.67;;;15.50;;
19891;SDS011;10108;50.142;8.724;2022-11-22T05:23:18;22.52;;;15.02;;
19891;SDS011;10108;50.142;8.724;2022-11-22T05:26:03;19.83;;;15.43;;
19891;SDS011;10108;50.142;8.724;2022-11-22T05:28:30;22.52;;;14.85;;
19891;SDS011;10108;50.142;8.724;2022-11-22T05:30:58;20.95;;;15.40;;
19891;SDS011;10108;50.142;8.724;2022-11-22T05:33:24;19.95;;;14.43;;
19891;SDS011;10108;50.142;8.724;2022-11-22T05:35:50;19.70;;;14.48;;
19891;SDS011;10108;50.142;8.724;2022-11-22T05:38:16;20.00;;;14.18;;
19891;SDS011;10108;50.142;8.724;2022-11-22T05:40:42;18.95;;;14.60;;
19891;SDS011;10108;50.142;8.724;2022-11-22T05:43:09;21.73;;;14.43;;
19891;SDS011;10108;50.142;8.724;2022-11-22T05:45:35;23.60;;;14.60;;
19891;SDS011;10108;50.142;8.724;2022-11-22T05:48:01;20.50;;;14.40;;
19891;SDS011;10108;50.142;8.724;2022-11-22T05:50:27;18.88;;;14.20;;
19891;SDS011;10108;50.142;8.724;2022-11-22T05:52:53;17.55;;;13.68;;
19891;SDS011;10108;50.142;8.724;2022-11-22T05:55:19;17.13;;;13.52;;
19891;SDS011;10108;50.142;8.724;2022-11-22T05:57:45;21.88;;;13.90;;
19891;SDS011;10108;50.142;8.724;2022-11-22T06:00:11;20.83;;;13.57;;
19891;SDS011;10108;50.142;8.724;2022-11-22T06:02:39;17.63;;;13.55;;
19891;SDS011;10108;50.142;8.724;2022-11-22T06:05:05;20.80;;;13.32;;
19891;SDS011;10108;50.142;8.724;2022-11-22T06:07:32;15.13;;;12.90;;
19891;SDS011;10108;50.142;8.724;2022-11-22T06:09:58;18.15;;;13.02;;
19891;SDS011;10108;50.142;8.724;2022-11-22T06:12:24;24.23;;;12.85;;
19891;SDS011;10108;50.142;8.724;2022-11-22T06:14:50;22.35;;;13.38;;
19891;SDS011;10108;50.142;8.724;2022-11-22T06:17:16;19.30;;;13.07;;
19891;SDS011;10108;50.142;8.724;2022-11-22T06:19:42;19.58;;;12.70;;
19891;SDS011;10108;50.142;8.724;2022-11-22T06:22:08;21.33;;;12.52;;
19891;SDS011;10108;50.142;8.724;2022-11-22T06:24:34;14.27;;;12.15;;
19891;SDS011;10108;50.142;8.724;2022-11-22T06:27:00;19.50;;;12.20;;
19891;SDS011;10108;50.142;8.724;2022-11-22T06:29:27;17.42;;;12.30;;
19891;SDS011;10108;50.142;8.724;2022-11-22T06:31:54;21.63;;;11.60;;
19891;SDS011;10108;50.142;8.724;2022-11-22T06:34:20;21.13;;;11.43;;
19891;SDS011;10108;50.142;8.724;2022-11-22T06:36:46;22.65;;;11.65;;
19891;SDS011;10108;50.142;8.724;2022-11-22T06:39:12;17.10;;;10.80;;
19891;SDS011;10108;50.142;8.724;2022-11-22T06:41:38;19.58;;;10.63;;
19891;SDS011;10108;50.142;8.724;2022-11-22T06:44:05;17.48;;;10.45;;
19891;SDS011;10108;50.142;8.724;2022-11-22T06:46:32;19.30;;;10.25;;
19891;SDS011;10108;50.142;8.724;2022-11-22T06:48:58;19.20;;;10.10;;
19891;SDS011;10108;50.142;8.724;2022-11-22T06:51:25;24.42;;;10.45;;
19891;SDS011;10108;50.142;8.724;2022-11-22T06:53:53;21.27;;;10.18;;
19891;SDS011;10108;50.142;8.724;2022-11-22T06:56:24;27.70;;;10.60;;
19891;SDS011;10108;50.142;8.724;2022-11-22T06:59:01;16.00;;;10.07;;
19891;SDS011;10108;50.142;8.724;2022-11-22T07:01:28;23.25;;;10.65;;
19891;SDS011;10108;50.142;8.724;2022-11-22T07:03:56;18.70;;;10.52;;
19891;SDS011;10108;50.142;8.724;2022-11-22T07:06:24;16.02;;;10.00;;
19891;SDS011;10108;50.142;8.724;2022-11-22T07:08:52;13.93;;;9.90;;
19891;SDS011;10108;50.142;8.724;2022-11-22T07:11:20;24.50;;;10.45;;
19891;SDS011;10108;50.142;8.724;2022-11-22T07:13:51;18.40;;;9.52;;
19891;SDS011;10108;50.142;8.724;2022-11-22T07:16:19;22.92;;;9.77;;
19891;SDS011;10108;50.142;8.724;2022-11-22T07:18:46;20.85;;;9.85;;
19891;SDS011;10108;50.142;8.724;2022-11-22T07:21:14;17.60;;;10.20;;
19891;SDS011;10108;50.142;8.724;2022-11-22T07:23:43;18.75;;;10.32;;
19891;SDS011;10108;50.142;8.724;2022-11-22T07:26:11;15.98;;;9.77;;
19891;SDS011;10108;50.142;8.724;2022-11-22T07:28:38;18.30;;;10.02;;
19891;SDS011;10108;50.142;8.724;2022-11-22T07:31:05;14.82;;;9.52;;
19891;SDS011;10108;50.142;8.724;2022-11-22T07:33:33;19.27;;;9.65;;
19891;SDS011;10108;50.142;8.724;2022-11-22T07:36:03;19.45;;;9.95;;
19891;SDS011;10108;50.142;8.724;2022-11-22T07:38:37;13.00;;;8.95;;
19891;SDS011;10108;50.142;8.724;2022-11-22T07:41:03;20.13;;;8.85;;
19891;SDS011;10108;50.142;8.724;2022-11-22T07:43:30;16.00;;;8.90;;
19891;SDS011;10108;50.142;8.724;2022-11-22T07:46:00;23.42;;;9.52;;
19891;SDS011;10108;50.142;8.724;2022-11-22T07:48:28;18.58;;;8.80;;
19891;SDS011;10108;50.142;8.724;2022-11-22T07:50:54;19.30;;;8.50;;
19891;SDS011;10108;50.142;8.724;2022-11-22T07:53:20;21.55;;;8.85;;
19891;SDS011;10108;50.142;8.724;2022-11-22T07:55:46;16.63;;;8.70;;
19891;SDS011;10108;50.142;8.724;2022-11-22T07:58:12;21.35;;;9.02;;
19891;SDS011;10108;50.142;8.724;2022-11-22T08:00:38;23.55;;;9.07;;
19891;SDS011;10108;50.142;8.724;2022-11-22T08:03:07;21.75;;;8.45;;
19891;SDS011;10108;50.142;8.724;2022-11-22T08:05:33;16.90;;;8.27;;
19891;SDS011;10108;50.142;8.724;2022-11-22T08:08:00;27.42;;;9.20;;
19891;SDS011;10108;50.142;8.724;2022-11-22T08:10:26;14.40;;;8.60;;
19891;SDS011;10108;50.142;8.724;2022-11-22T08:12:52;19.42;;;8.68;;
19891;SDS011;10108;50.142;8.724;2022-11-22T08:15:18;19.27;;;9.32;;
19891;SDS011;10108;50.142;8.724;2022-11-22T08:17:44;19.52;;;8.55;;
19891;SDS011;10108;50.142;8.724;2022-11-22T08:20:10;17.00;;;8.13;;
19891;SDS011;10108;50.142;8.724;2022-11-22T08:22:38;16.52;;;8.15;;
19891;SDS011;10108;50.142;8.724;2022-11-22T08:25:05;15.23;;;8.45;;
19891;SDS011;10108;50.142;8.724;2022-11-22T08:27:37;19.65;;;8.90;;
19891;SDS011;10108;50.142;8.724;2022-11-22T08:30:05;16.35;;;7.72;;
19891;SDS011;10108;50.142;8.724;2022-11-22T08:32:32;16.48;;;8.38;;
19891;SDS011;10108;50.142;8.724;2022-11-22T08:34:58;20.08;;;8.63;;
19891;SDS011;10108;50.142;8.724;2022-11-22T08:37:24;17.42;;;7.85;;
19891;SDS011;10108;50.142;8.724;2022-11-22T08:39:50;16.30;;;8.25;;
19891;SDS011;10108;50.142;8.724;2022-11-22T08:42:16;17.67;;;7.97;;
19891;SDS011;10108;50.142;8.724;2022-11-22T08:44:42;18.17;;;8.15;;
19891;SDS011;10108;50.142;8.724;2022-11-22T08:47:08;14.75;;;7.82;;
19891;SDS011;10108;50.142;8.724;2022-11-22T08:49:35;16.50;;;7.30;;
19891;SDS011;10108;50.142;8.724;2022-11-22T08:52:01;17.05;;;7.15;;
19891;SDS011;10108;50.142;8.724;2022-11-22T08:54:27;16.90;;;7.30;;
19891;SDS011;10108;50.142;8.724;2022-11-22T08:56:53;13.18;;;6.97;;
19891;SDS011;10108;50.142;8.724;2022-11-22T08:59:19;20.38;;;7.72;;
19891;SDS011;10108;50.142;8.724;2022-11-22T09:01:45;15.63;;;7.65;;
19891;SDS011;10108;50.142;8.724;2022-11-22T09:04:11;16.65;;;7.50;;
19891;SDS011;10108;50.142;8.724;2022-11-22T09:06:38;16.38;;;7.50;;
19891;SDS011;10108;50.142;8.724;2022-11-22T09:09:04;17.38;;;7.43;;
19891;SDS011;10108;50.142;8.724;2022-11-22T09:11:30;19.00;;;7.43;;
19891;SDS011;10108;50.142;8.724;2022-11-22T09:13:56;14.98;;;7.38;;
19891;SDS011;10108;50.142;8.724;2022-11-22T09:16:22;18.63;;;7.60;;
19891;SDS011;10108;50.142;8.724;2022-11-22T09:18:48;14.32;;;6.78;;
19891;SDS011;10108;50.142;8.724;2022-11-22T09:21:16;17.13;;;7.05;;
19891;SDS011;10108;50.142;8.724;2022-11-22T09:23:44;18.67;;;7.03;;
19891;SDS011;10108;50.142;8.724;2022-11-22T09:26:13;13.68;;;7.28;;
19891;SDS011;10108;50.142;8.724;2022-11-22T09:28:40;16.50;;;6.80;;
19891;SDS011;10108;50.142;8.724;2022-11-22T09:31:16;12.13;;;6.80;;
19891;SDS011;10108;50.142;8.724;2022-11-22T09:33:44;14.55;;;6.43;;
19891;SDS011;10108;50.142;8.724;2022-11-22T09:38:41;14.18;;;6.80;;
19891;SDS011;10108;50.142;8.724;2022-11-22T09:43:45;19.08;;;6.85;;
19891;SDS011;10108;50.142;8.724;2022-11-22T09:46:17;12.70;;;6.65;;
19891;SDS011;10108;50.142;8.724;2022-11-22T09:51:46;15.48;;;6.47;;
19891;SDS011;10108;50.142;8.724;2022-11-22T09:54:23;13.73;;;6.30;;
19891;SDS011;10108;50.142;8.724;2022-11-22T09:56:56;18.45;;;6.40;;
19891;SDS011;10108;50.142;8.724;2022-11-22T09:59:27;11.85;;;6.47;;
19891;SDS011;10108;50.142;8.724;2022-11-22T10:04:39;17.73;;;6.35;;
19891;SDS011;10108;50.142;8.724;2022-11-22T10:09:46;13.20;;;6.15;;
19891;SDS011;10108;50.142;8.724;2022-11-22T10:12:39;11.07;;;5.72;;
19891;SDS011;10108;50.142;8.724;2022-11-22T10:18:03;15.98;;;6.68;;
19891;SDS011;10108;50.142;8.724;2022-11-22T10:20:41;18.92;;;6.55;;
19891;SDS011;10108;50.142;8.724;2022-11-22T10:23:21;17.58;;;6.53;;
19891;SDS011;10108;50.142;8.724;2022-11-22T10:25:56;12.95;;;6.22;;
19891;SDS011;10108;50.142;8.724;2022-11-22T10:31:15;14.77;;;6.30;;
19891;SDS011;10108;50.142;8.724;2022-11-22T10:42:09;12.98;;;6.05;;
19891;SDS011;10108;50.142;8.724;2022-11-22T10:49:38;10.18;;;6.18;;
19891;SDS011;10108;50.142;8.724;2022-11-22T10:52:18;16.48;;;6.40;;
19891;SDS011;10108;50.142;8.724;2022-11-22T10:57:37;10.23;;;6.00;;
19891;SDS011;10108;50.142;8.724;2022-11-22T11:00:21;17.83;;;6.43;;
19891;SDS011;10108;50.142;8.724;2022-11-22T11:05:32;12.43;;;5.88;;
19891;SDS011;10108;50.142;8.724;2022-11-22T11:08:04;12.82;;;6.25;;
19891;SDS011;10108;50.142;8.724;2022-11-22T11:10:37;16.33;;;6.40;;
19891;SDS011;10108;50.142;8.724;2022-11-22T11:13:14;15.52;;;6.15;;
19891;SDS011;10108;50.142;8.724;2022-11-22T11:15:49;14.52;;;6.60;;
19891;SDS011;10108;50.142;8.724;2022-11-22T11:18:19;12.98;;;6.05;;
19891;SDS011;10108;50.142;8.724;2022-11-22T11:21:03;12.48;;;6.18;;
19891;SDS011;10108;50.142;8.724;2022-11-22T11:23:31;15.48;;;6.70;;
19891;SDS011;10108;50.142;8.724;2022-11-22T11:25:57;11.88;;;5.90;;
19891;SDS011;10108;50.142;8.724;2022-11-22T11:28:42;13.25;;;5.80;;
19891;SDS011;10108;50.142;8.724;2022-11-22T11:31:09;14.50;;;6.10;;
19891;SDS011;10108;50.142;8.724;2022-11-22T11:33:38;17.88;;;6.10;;
19891;SDS011;10108;50.142;8.724;2022-11-22T11:41:16;10.80;;;6.13;;
19891;SDS011;10108;50.142;8.724;2022-11-22T11:43:43;15.13;;;6.40;;
19891;SDS011;10108;50.142;8.724;2022-11-22T11:46:23;15.85;;;7.10;;
19891;SDS011;10108;50.142;8.724;2022-11-22T11:48:54;12.98;;;6.53;;
19891;SDS011;10108;50.142;8.724;2022-11-22T11:51:48;12.75;;;6.00;;
19891;SDS011;10108;50.142;8.724;2022-11-22T11:54:28;12.55;;;6.22;;
19891;SDS011;10108;50.142;8.724;2022-11-22T11:57:02;13.45;;;5.90;;
19891;SDS011;10108;50.142;8.724;2022-11-22T12:04:56;14.48;;;5.95;;
19891;SDS011;10108;50.142;8.724;2022-11-22T12:07:23;15.18;;;6.18;;
19891;SDS011;10108;50.142;8.724;2022-11-22T12:09:52;14.68;;;6.47;;
19891;SDS011;10108;50.142;8.724;2022-11-22T12:12:37;14.98;;;6.35;;
19891;SDS011;10108;50.142;8.724;2022-11-22T12:23:41;13.38;;;5.90;;
19891;SDS011;10108;50.142;8.724;2022-11-22T12:26:18;13.15;;;5.88;;
19891;SDS011;10108;50.142;8.724;2022-11-22T12:28:45;10.88;;;5.82;;
19891;SDS011;10108;50.142;8.724;2022-11-22T12:31:26;14.32;;;5.90;;
19891;SDS011;10108;50.142;8.724;2022-11-22T12:34:15;14.68;;;6.00;;
19891;SDS011;10108;50.142;8.724;2022-11-22T12:39:25;13.52;;;6.18;;
19891;SDS011;10108;50.142;8.724;2022-11-22T12:42:00;13.13;;;6.07;;
19891;SDS011;10108;50.142;8.724;2022-11-22T12:44:41;12.93;;;5.97;;
19891;SDS011;10108;50.142;8.724;2022-11-22T12:47:14;10.50;;;5.65;;
19891;SDS011;10108;50.142;8.724;2022-11-22T12:49:46;12.73;;;6.03;;
19891;SDS011;10108;50.142;8.724;2022-11-22T12:52:22;19.88;;;6.30;;
19891;SDS011;10108;50.142;8.724;2022-11-22T13:00:39;14.20;;;6.07;;
19891;SDS011;10108;50.142;8.724;2022-11-22T13:03:26;13.18;;;5.60;;
19891;SDS011;10108;50.142;8.724;2022-11-22T13:05:57;16.23;;;5.88;;
19891;SDS011;10108;50.142;8.724;2022-11-22T13:08:46;10.77;;;5.65;;
19891;SDS011;10108;50.142;8.724;2022-11-22T13:14:34;15.50;;;5.63;;
19891;SDS011;10108;50.142;8.724;2022-11-22T13:16:57;11.48;;;5.65;;
19891;SDS011;10108;50.142;8.724;2022-11-22T13:19:24;12.27;;;5.13;;
19891;SDS011;10108;50.142;8.724;2022-11-22T13:22:10;13.73;;;5.60;;
19891;SDS011;10108;50.142;8.724;2022-11-22T13:27:27;12.15;;;5.53;;
19891;SDS011;10108;50.142;8.724;2022-11-22T13:29:56;12.85;;;5.65;;
19891;SDS011;10108;50.142;8.724;2022-11-22T13:32:34;11.23;;;5.85;;
19891;SDS011;10108;50.142;8.724;2022-11-22T13:35:35;9.32;;;5.30;;
19891;SDS011;10108;50.142;8.724;2022-11-22T13:37:59;15.07;;;5.82;;
19891;SDS011;10108;50.142;8.724;2022-11-22T13:40:30;10.05;;;5.50;;
19891;SDS011;10108;50.142;8.724;2022-11-22T13:45:48;17.05;;;6.10;;
19891;SDS011;10108;50.142;8.724;2022-11-22T13:51:07;9.02;;;5.90;;
19891;SDS011;10108;50.142;8.724;2022-11-22T13:53:39;10.35;;;5.60;;
19891;SDS011;10108;50.142;8.724;2022-11-22T14:01:29;14.02;;;5.85;;
19891;SDS011;10108;50.142;8.724;2022-11-22T14:20:34;10.98;;;5.60;;
19891;SDS011;10108;50.142;8.724;2022-11-22T14:23:46;12.52;;;5.43;;
19891;SDS011;10108;50.142;8.724;2022-11-22T14:26:39;9.10;;;5.18;;
19891;SDS011;10108;50.142;8.724;2022-11-22T14:32:13;14.27;;;5.60;;
19891;SDS011;10108;50.142;8.724;2022-11-22T14:50:23;10.93;;;5.30;;
19891;SDS011;10108;50.142;8.724;2022-11-22T14:52:55;11.13;;;5.57;;
19891;SDS011;10108;50.142;8.724;2022-11-22T14:55:25;12.30;;;5.97;;
19891;SDS011;10108;50.142;8.724;2022-11-22T14:57:59;12.38;;;5.55;;
19891;SDS011;10108;50.142;8.724;2022-11-22T15:00:35;9.95;;;5.82;;
19891;SDS011;10108;50.142;8.724;2022-11-22T15:03:09;10.32;;;5.85;;
19891;SDS011;10108;50.142;8.724;2022-11-22T15:06:24;13.95;;;6.10;;
19891;SDS011;10108;50.142;8.724;2022-11-22T15:09:02;12.90;;;5.78;;
19891;SDS011;10108;50.142;8.724;2022-11-22T15:17:01;9.90;;;5.15;;
19891;SDS011;10108;50.142;8.724;2022-11-22T15:19:35;12.63;;;5.60;;
19891;SDS011;10108;50.142;8.724;2022-11-22T15:22:15;11.80;;;5.43;;
19891;SDS011;10108;50.142;8.724;2022-11-22T15:24:50;11.23;;;5.88;;
19891;SDS011;10108;50.142;8.724;2022-11-22T15:29:46;9.82;;;5.22;;
19891;SDS011;10108;50.142;8.724;2022-11-22T15:32:15;8.65;;;5.22;;
19891;SDS011;10108;50.142;8.724;2022-11-22T15:34:42;9.25;;;5.82;;
19891;SDS011;10108;50.142;8.724;2022-11-22T15:37:14;10.40;;;5.40;;
19891;SDS011;10108;50.142;8.724;2022-11-22T15:39:50;12.25;;;5.28;;
19891;SDS011;10108;50.142;8.724;2022-11-22T15:42:16;9.48;;;4.68;;
19891;SDS011;10108;50.142;8.724;2022-11-22T15:44:43;10.60;;;5.22;;
19891;SDS011;10108;50.142;8.724;2022-11-22T15:47:17;10.02;;;4.68;;
19891;SDS011;10108;50.142;8.724;2022-11-22T15:49:44;10.05;;;5.13;;
19891;SDS011;10108;50.142;8.724;2022-11-22T15:52:24;10.55;;;4.97;;
19891;SDS011;10108;50.142;8.724;2022-11-22T15:54:54;7.40;;;4.78;;
19891;SDS011;10108;50.142;8.724;2022-11-22T15:57:32;8.77;;;5.03;;
19891;SDS011;10108;50.142;8.724;2022-11-22T16:00:07;7.88;;;5.13;;
19891;SDS011;10108;50.142;8.724;2022-11-22T16:02:36;8.80;;;4.70;;
19891;SDS011;10108;50.142;8.724;2022-11-22T16:05:11;8.05;;;4.72;;
19891;SDS011;10108;50.142;8.724;2022-11-22T16:07:38;8.50;;;4.85;;
19891;SDS011;10108;50.142;8.724;2022-11-22T16:10:15;9.10;;;4.97;;
19891;SDS011;10108;50.142;8.724;2022-11-22T16:12:47;8.98;;;5.03;;
19891;SDS011;10108;50.142;8.724;2022-11-22T16:20:57;9.40;;;5.20;;
19891;SDS011;10108;50.142;8.724;2022-11-22T16:24:06;9.52;;;5.05;;
19891;SDS011;10108;50.142;8.724;2022-11-22T16:26:58;9.95;;;5.10;;
19891;SDS011;10108;50.142;8.724;2022-11-22T16:29:49;8.52;;;5.00;;
19891;SDS011;10108;50.142;8.724;2022-11-22T16:32:16;8.98;;;4.90;;
19891;SDS011;10108;50.142;8.724;2022-11-22T16:34:43;12.70;;;5.13;;
19891;SDS011;10108;50.142;8.724;2022-11-22T16:37:27;9.70;;;5.00;;
19891;SDS011;10108;50.142;8.724;2022-11-22T16:39:56;10.52;;;5.25;;
19891;SDS011;10108;50.142;8.724;2022-11-22T16:42:23;9.40;;;5.30;;
19891;SDS011;10108;50.142;8.724;2022-11-22T16:44:50;8.98;;;4.90;;
19891;SDS011;10108;50.142;8.724;2022-11-22T16:47:17;8.20;;;5.05;;
19891;SDS011;10108;50.142;8.724;2022-11-22T16:49:44;7.82;;;5.00;;
19891;SDS011;10108;50.142;8.724;2022-11-22T16:52:11;9.13;;;5.07;;
19891;SDS011;10108;50.142;8.724;2022-11-22T16:54:38;8.65;;;5.28;;
19891;SDS011;10108;50.142;8.724;2022-11-22T16:57:09;8.70;;;5.00;;
19891;SDS011;10108;50.142;8.724;2022-11-22T16:59:36;9.05;;;5.03;;